Ginys del Meteocat
Campanya meteocatpedra

Dades de l'estació automàtica Vilanova de Meià

?
?
Resum diari 21:30 TU
Dades diàries de l'estació meteorològica
Temperatura mitjana 15.5 °C
Temperatura màxima 21.4 °C 14:29 TU
Temperatura mínima 10.6 °C 0:56 TU
Humitat relativa mitjana 72%
Precipitació acumulada 0.0 mm
Ratxa màxima del vent (10 m) 20.9 km/h - 215º 14:05 TU
Pressió atmosfèrica mitjana 1014.8 hPa

El tram horari està expressat en Temps Universal (TU). Cal sumar una hora en horari d'hivern i dues en horari d'estiu per passar a l'hora oficial.

Vilanova de Meià

Metadades estació meteorol´gica
Municipi Vilanova de Meià
Comarca Noguera
Altitud 594 m
Data alta 01.04.1996
Estat actual Operativa
Dades de període
Període
TU
TM
°C
TX
°C
TN
°C
HRM
%
PPT
mm
VVM (10 m)
km/h
DVM (10 m)
graus
VVX (10 m)
km/h
PM
hPa
00:00 - 00:30 10.9 11.2 10.6 83 0.0 1.1 4 3.6 1017.4
00:30 - 01:00 10.9 11.2 10.6 83 0.0 1.1 21 3.2 1017.4
01:00 - 01:30 11.2 11.5 10.8 83 0.0 1.4 25 4.7 1017.0
01:30 - 02:00 10.9 11.1 10.7 85 0.0 1.1 22 3.2 1017.3
02:00 - 02:30 11.7 12.2 11.2 81 0.0 1.8 19 5.0 1016.7
02:30 - 03:00 11.2 11.8 11.0 86 0.0 0.7 55 4.3 1016.7
03:00 - 03:30 11.3 11.5 11.0 87 0.0 1.4 240 5.0 1016.7
03:30 - 04:00 11.7 11.9 11.3 84 0.0 1.8 287 7.2 1016.4
04:00 - 04:30 11.7 12.5 11.3 83 0.0 1.4 35 5.0 1016.4
04:30 - 05:00 11.6 12.6 11.3 84 0.0 2.5 223 6.8 1016.7
05:00 - 05:30 11.2 11.4 11.0 87 0.0 1.1 170 4.7 1016.6
05:30 - 06:00 11.5 11.6 11.3 86 0.0 1.1 64 4.3 1016.6
06:00 - 06:30 11.7 11.9 11.6 85 0.0 0.4 2 2.9 1016.6
06:30 - 07:00 12.2 12.6 11.9 81 0.0 2.2 316 9.0 1016.8
07:00 - 07:30 12.3 12.5 12.0 82 0.0 2.2 217 11.2 1016.7
07:30 - 08:00 13.2 13.8 12.5 76 0.0 1.8 167 7.6 1016.7
08:00 - 08:30 14.3 14.8 13.6 71 0.0 2.2 157 9.7 1016.4
08:30 - 09:00 15.5 16.2 14.7 67 0.0 2.5 183 7.6 1016.1
09:00 - 09:30 16.3 17.1 15.9 64 0.0 1.1 36 7.9 1015.9
09:30 - 10:00 18.0 18.3 17.1 62 0.0 4.7 184 16.9 1015.3
10:00 - 10:30 18.2 18.5 17.8 62 0.0 6.8 180 15.8 1015.2
10:30 - 11:00 19.6 20.4 18.4 57 0.0 5.0 192 12.6 1014.9
11:00 - 11:30 20.0 20.4 19.5 56 0.0 7.2 213 19.1 1014.3
11:30 - 12:00 19.5 20.4 18.9 57 0.0 8.3 196 18.7 1014.2
12:00 - 12:30 20.1 20.6 19.5 56 0.0 5.0 176 13.0 1013.5
12:30 - 13:00 20.7 20.9 20.6 55 0.0 6.5 193 18.0 1012.9
13:00 - 13:30 20.9 21.1 20.7 54 0.0 5.8 226 14.8 1012.6
13:30 - 14:00 21.0 21.2 20.8 53 0.0 5.4 236 13.3 1012.4
14:00 - 14:30 21.2 21.4 21.0 53 0.0 7.9 220 20.9 1012.3
14:30 - 15:00 21.0 21.4 20.6 54 0.0 6.8 233 19.4 1012.3
15:00 - 15:30 21.2 21.4 20.7 52 0.0 4.7 231 12.6 1012.0
15:30 - 16:00 20.1 21.0 19.7 60 0.0 5.8 175 14.0 1012.1
16:00 - 16:30 19.5 19.7 19.2 62 0.0 5.0 159 11.9 1012.2
16:30 - 17:00 18.9 19.2 18.8 65 0.0 2.5 117 9.0 1012.3
17:00 - 17:30 17.9 18.7 17.1 70 0.0 1.1 14 4.3 1012.6
17:30 - 18:00 16.6 17.1 15.9 73 0.0 1.8 21 4.0 1013.0
18:00 - 18:30 15.4 15.8 15.2 76 0.0 1.8 26 5.0 1013.2
18:30 - 19:00 14.7 15.2 14.2 78 0.0 0.7 29 4.7 1013.6
19:00 - 19:30 14.3 14.6 14.1 80 0.0 1.4 33 3.2 1013.8
19:30 - 20:00 14.7 14.8 14.3 78 0.0 1.1 31 3.6 1013.7
20:00 - 20:30 14.3 14.4 14.1 81 0.0 1.4 19 3.6 1013.9
20:30 - 21:00 14.6 15.1 14.4 80 0.0 1.4 25 5.0 1013.7
21:00 - 21:30 14.7 15.1 14.3 80 0.0 2.2 30 5.0 1013.5
21:30 - 22:00 15.1 15.5 14.5 78 0.0 1.4 87 7.2 1013.3

Les dades en taronja només han passat un control de qualitat automàtic. Resta pendent la seva validació definitiva.